sensor_id;sensor_type;location;lat;lon;timestamp;pressure;altitude;pressure_sealevel;temperature;humidity
57094;BME280;42970;50.996;3.706;2022-12-17T00:00:45;79771.22;;;-146.65;100.00
57094;BME280;42970;50.996;3.706;2022-12-17T00:03:29;79763.16;;;-146.65;100.00
57094;BME280;42970;50.996;3.706;2022-12-17T00:06:13;79783.34;;;-146.65;100.00
57094;BME280;42970;50.996;3.706;2022-12-17T00:08:57;79793.44;;;-146.65;100.00
57094;BME280;42970;50.996;3.706;2022-12-17T00:11:41;79807.56;;;-146.65;100.00
57094;BME280;42970;50.996;3.706;2022-12-17T00:14:25;79811.63;;;-146.65;100.00
57094;BME280;42970;50.996;3.706;2022-12-17T00:17:09;79819.69;;;-146.65;100.00
57094;BME280;42970;50.996;3.706;2022-12-17T00:19:53;79819.69;;;-146.65;100.00
57094;BME280;42970;50.996;3.706;2022-12-17T00:22:37;79821.72;;;-146.65;100.00
57094;BME280;42970;50.996;3.706;2022-12-17T00:25:20;79829.78;;;-146.65;100.00
57094;BME280;42970;50.996;3.706;2022-12-17T00:28:08;79825.75;;;-146.65;100.00
57094;BME280;42970;50.996;3.706;2022-12-17T00:31:12;79821.72;;;-146.65;100.00
57094;BME280;42970;50.996;3.706;2022-12-17T00:33:55;79827.78;;;-146.65;100.00
57094;BME280;42970;50.996;3.706;2022-12-17T00:36:39;79807.56;;;-146.65;100.00
57094;BME280;42970;50.996;3.706;2022-12-17T00:39:23;79811.63;;;-146.65;100.00
57094;BME280;42970;50.996;3.706;2022-12-17T00:42:07;79819.69;;;-146.65;100.00
57094;BME280;42970;50.996;3.706;2022-12-17T00:44:51;79819.69;;;-146.65;100.00
57094;BME280;42970;50.996;3.706;2022-12-17T00:47:35;79821.72;;;-146.65;100.00
57094;BME280;42970;50.996;3.706;2022-12-17T00:50:19;79847.97;;;-146.65;100.00
57094;BME280;42970;50.996;3.706;2022-12-17T00:53:03;79807.56;;;-146.65;100.00
57094;BME280;42970;50.996;3.706;2022-12-17T00:55:47;79755.06;;;-146.65;100.00
57094;BME280;42970;50.996;3.706;2022-12-17T00:58:31;79730.84;;;-146.65;100.00
57094;BME280;42970;50.996;3.706;2022-12-17T01:01:14;79718.75;;;-146.65;100.00
57094;BME280;42970;50.996;3.706;2022-12-17T01:03:58;79730.84;;;-146.65;100.00
57094;BME280;42970;50.996;3.706;2022-12-17T01:06:42;79712.69;;;-146.65;100.00
57094;BME280;42970;50.996;3.706;2022-12-17T01:09:26;79728.84;;;-146.65;100.00
57094;BME280;42970;50.996;3.706;2022-12-17T01:12:10;79759.13;;;-146.65;100.00
57094;BME280;42970;50.996;3.706;2022-12-17T01:14:54;79789.41;;;-146.65;100.00
57094;BME280;42970;50.996;3.706;2022-12-17T01:17:38;79795.47;;;-146.65;100.00
57094;BME280;42970;50.996;3.706;2022-12-17T01:20:22;79801.53;;;-146.65;100.00
57094;BME280;42970;50.996;3.706;2022-12-17T01:23:06;79803.53;;;-146.65;100.00
57094;BME280;42970;50.996;3.706;2022-12-17T01:25:52;79821.72;;;-146.65;100.00
57094;BME280;42970;50.996;3.706;2022-12-17T01:28:36;79843.94;;;-146.65;100.00
57094;BME280;42970;50.996;3.706;2022-12-17T01:31:20;79864.13;;;-146.65;100.00
57094;BME280;42970;50.996;3.706;2022-12-17T01:34:03;79876.22;;;-146.65;100.00
57094;BME280;42970;50.996;3.706;2022-12-17T01:36:47;79890.38;;;-146.65;100.00
57094;BME280;42970;50.996;3.706;2022-12-17T01:39:31;79837.88;;;-146.65;100.00
57094;BME280;42970;50.996;3.706;2022-12-17T01:42:15;79829.78;;;-146.65;100.00
57094;BME280;42970;50.996;3.706;2022-12-17T01:45:00;79866.13;;;-146.65;100.00
57094;BME280;42970;50.996;3.706;2022-12-17T01:47:48;79888.34;;;-146.65;100.00
57094;BME280;42970;50.996;3.706;2022-12-17T01:50:34;79908.53;;;-146.65;100.00
57094;BME280;42970;50.996;3.706;2022-12-17T01:53:21;79926.72;;;-146.65;100.00
57094;BME280;42970;50.996;3.706;2022-12-17T01:56:05;79936.81;;;-146.65;100.00
57094;BME280;42970;50.996;3.706;2022-12-17T01:58:50;79948.94;;;-146.65;100.00
57094;BME280;42970;50.996;3.706;2022-12-17T02:01:35;79944.88;;;-146.65;100.00
57094;BME280;42970;50.996;3.706;2022-12-17T02:04:19;79942.88;;;-146.65;100.00
57094;BME280;42970;50.996;3.706;2022-12-17T02:09:54;79961.03;;;-146.65;100.00
57094;BME280;42970;50.996;3.706;2022-12-17T02:12:46;79942.88;;;-146.65;100.00
57094;BME280;42970;50.996;3.706;2022-12-17T02:15:32;79948.94;;;-146.65;100.00
57094;BME280;42970;50.996;3.706;2022-12-17T02:18:17;79961.03;;;-146.65;100.00
57094;BME280;42970;50.996;3.706;2022-12-17T02:21:03;79985.28;;;-146.65;100.00
57094;BME280;42970;50.996;3.706;2022-12-17T02:26:36;79977.19;;;-146.65;100.00
57094;BME280;42970;50.996;3.706;2022-12-17T02:29:21;79975.19;;;-146.65;100.00
57094;BME280;42970;50.996;3.706;2022-12-17T02:32:06;79983.25;;;-146.65;100.00
57094;BME280;42970;50.996;3.706;2022-12-17T02:34:52;79971.13;;;-146.65;100.00
57094;BME280;42970;50.996;3.706;2022-12-17T02:37:36;79920.66;;;-146.65;100.00
57094;BME280;42970;50.996;3.706;2022-12-17T02:40:20;79904.50;;;-146.65;100.00
57094;BME280;42970;50.996;3.706;2022-12-17T02:43:05;79912.56;;;-146.65;100.00
57094;BME280;42970;50.996;3.706;2022-12-17T02:45:50;79936.81;;;-146.65;100.00
57094;BME280;42970;50.996;3.706;2022-12-17T02:48:35;79954.97;;;-146.65;100.00
57094;BME280;42970;50.996;3.706;2022-12-17T02:51:20;79965.09;;;-146.65;100.00
57094;BME280;42970;50.996;3.706;2022-12-17T02:54:04;79977.19;;;-146.65;100.00
57094;BME280;42970;50.996;3.706;2022-12-17T02:56:48;79985.28;;;-146.65;100.00
57094;BME280;42970;50.996;3.706;2022-12-17T02:59:32;79965.09;;;-146.65;100.00
57094;BME280;42970;50.996;3.706;2022-12-17T03:02:16;79969.13;;;-146.65;100.00
57094;BME280;42970;50.996;3.706;2022-12-17T03:05:00;79977.19;;;-146.65;100.00
57094;BME280;42970;50.996;3.706;2022-12-17T03:07:44;80005.47;;;-146.65;100.00
57094;BME280;42970;50.996;3.706;2022-12-17T03:10:27;80015.56;;;-146.65;100.00
57094;BME280;42970;50.996;3.706;2022-12-17T03:13:22;80017.59;;;-146.65;100.00
57094;BME280;42970;50.996;3.706;2022-12-17T03:16:07;80027.69;;;-146.65;100.00
57094;BME280;42970;50.996;3.706;2022-12-17T03:18:51;80041.81;;;-146.65;100.00
57094;BME280;42970;50.996;3.706;2022-12-17T03:21:35;80051.91;;;-146.65;100.00
57094;BME280;42970;50.996;3.706;2022-12-17T03:24:20;80049.88;;;-146.65;100.00
57094;BME280;42970;50.996;3.706;2022-12-17T03:27:04;80041.81;;;-146.65;100.00
57094;BME280;42970;50.996;3.706;2022-12-17T03:29:48;80021.63;;;-146.65;100.00
57094;BME280;42970;50.996;3.706;2022-12-17T03:32:32;79973.16;;;-146.65;100.00
57094;BME280;42970;50.996;3.706;2022-12-17T03:35:16;79944.88;;;-146.65;100.00
57094;BME280;42970;50.996;3.706;2022-12-17T03:38:00;79932.78;;;-146.65;100.00
57094;BME280;42970;50.996;3.706;2022-12-17T03:40:48;79938.81;;;-146.65;100.00
57094;BME280;42970;50.996;3.706;2022-12-17T03:43:32;79957.00;;;-146.65;100.00
57094;BME280;42970;50.996;3.706;2022-12-17T03:46:16;79993.34;;;-146.65;100.00
57094;BME280;42970;50.996;3.706;2022-12-17T03:49:00;80007.47;;;-146.65;100.00
57094;BME280;42970;50.996;3.706;2022-12-17T03:51:44;79993.34;;;-146.65;100.00
57094;BME280;42970;50.996;3.706;2022-12-17T03:54:28;79987.28;;;-146.65;100.00
57094;BME280;42970;50.996;3.706;2022-12-17T03:57:12;79993.34;;;-146.65;100.00
57094;BME280;42970;50.996;3.706;2022-12-17T03:59:56;79989.31;;;-146.65;100.00
57094;BME280;42970;50.996;3.706;2022-12-17T04:02:40;79983.25;;;-146.65;100.00
57094;BME280;42970;50.996;3.706;2022-12-17T04:05:24;79993.34;;;-146.65;100.00
57094;BME280;42970;50.996;3.706;2022-12-17T04:08:08;80009.50;;;-146.65;100.00
57094;BME280;42970;50.996;3.706;2022-12-17T04:10:52;80025.66;;;-146.65;100.00
57094;BME280;42970;50.996;3.706;2022-12-17T04:13:35;80041.81;;;-146.65;100.00
57094;BME280;42970;50.996;3.706;2022-12-17T04:16:19;80041.81;;;-146.65;100.00
57094;BME280;42970;50.996;3.706;2022-12-17T04:19:03;80055.94;;;-146.65;100.00
57094;BME280;42970;50.996;3.706;2022-12-17T04:21:47;80057.97;;;-146.65;100.00
57094;BME280;42970;50.996;3.706;2022-12-17T04:24:31;80055.94;;;-146.65;100.00
57094;BME280;42970;50.996;3.706;2022-12-17T04:27:15;80035.75;;;-146.65;100.00
57094;BME280;42970;50.996;3.706;2022-12-17T04:29:59;80031.72;;;-146.65;100.00
57094;BME280;42970;50.996;3.706;2022-12-17T04:32:43;80025.66;;;-146.65;100.00
57094;BME280;42970;50.996;3.706;2022-12-17T04:35:27;80047.88;;;-146.65;100.00
57094;BME280;42970;50.996;3.706;2022-12-17T04:38:11;80062.00;;;-146.65;100.00
57094;BME280;42970;50.996;3.706;2022-12-17T04:40:55;80066.03;;;-146.65;100.00
57094;BME280;42970;50.996;3.706;2022-12-17T04:43:39;80051.91;;;-146.65;100.00
57094;BME280;42970;50.996;3.706;2022-12-17T04:46:23;80053.94;;;-146.65;100.00
57094;BME280;42970;50.996;3.706;2022-12-17T04:49:07;80043.84;;;-146.65;100.00
57094;BME280;42970;50.996;3.706;2022-12-17T04:51:50;80029.69;;;-146.65;100.00
57094;BME280;42970;50.996;3.706;2022-12-17T04:54:34;80023.63;;;-146.65;100.00
57094;BME280;42970;50.996;3.706;2022-12-17T04:57:18;80021.63;;;-146.65;100.00
57094;BME280;42970;50.996;3.706;2022-12-17T05:00:02;80041.81;;;-146.65;100.00
57094;BME280;42970;50.996;3.706;2022-12-17T05:02:46;80057.97;;;-146.65;100.00
57094;BME280;42970;50.996;3.706;2022-12-17T05:05:30;80082.19;;;-146.65;100.00
57094;BME280;42970;50.996;3.706;2022-12-17T05:08:14;80057.97;;;-146.65;100.00
57094;BME280;42970;50.996;3.706;2022-12-17T05:11:02;80059.97;;;-146.65;100.00
57094;BME280;42970;50.996;3.706;2022-12-17T05:13:46;80068.06;;;-146.65;100.00
57094;BME280;42970;50.996;3.706;2022-12-17T05:16:30;80086.25;;;-146.65;100.00
57094;BME280;42970;50.996;3.706;2022-12-17T05:19:14;80094.31;;;-146.65;100.00
57094;BME280;42970;50.996;3.706;2022-12-17T05:21:57;80082.19;;;-146.65;100.00
57094;BME280;42970;50.996;3.706;2022-12-17T05:24:41;80070.09;;;-146.65;100.00
57094;BME280;42970;50.996;3.706;2022-12-17T05:27:25;80072.09;;;-146.65;100.00
57094;BME280;42970;50.996;3.706;2022-12-17T05:30:09;80080.19;;;-146.65;100.00
57094;BME280;42970;50.996;3.706;2022-12-17T05:32:57;80096.34;;;-146.65;100.00
57094;BME280;42970;50.996;3.706;2022-12-17T05:35:40;80084.22;;;-146.65;100.00
57094;BME280;42970;50.996;3.706;2022-12-17T05:38:44;80066.03;;;-146.65;100.00
57094;BME280;42970;50.996;3.706;2022-12-17T05:41:27;80066.03;;;-146.65;100.00
57094;BME280;42970;50.996;3.706;2022-12-17T05:44:13;80057.97;;;-146.65;100.00
57094;BME280;42970;50.996;3.706;2022-12-17T05:46:57;80033.72;;;-146.65;100.00
57094;BME280;42970;50.996;3.706;2022-12-17T05:49:41;80035.75;;;-146.65;100.00
57094;BME280;42970;50.996;3.706;2022-12-17T05:52:25;80045.84;;;-146.65;100.00
57094;BME280;42970;50.996;3.706;2022-12-17T05:55:09;80062.00;;;-146.65;100.00
57094;BME280;42970;50.996;3.706;2022-12-17T05:58:00;80078.16;;;-146.65;100.00
57094;BME280;42970;50.996;3.706;2022-12-17T06:00:43;80098.34;;;-146.65;100.00
57094;BME280;42970;50.996;3.706;2022-12-17T06:03:27;80102.38;;;-146.65;100.00
57094;BME280;42970;50.996;3.706;2022-12-17T06:06:11;80086.25;;;-146.65;100.00
57094;BME280;42970;50.996;3.706;2022-12-17T06:08:55;80086.25;;;-146.65;100.00
57094;BME280;42970;50.996;3.706;2022-12-17T06:11:39;80053.94;;;-146.65;100.00
57094;BME280;42970;50.996;3.706;2022-12-17T06:14:23;80021.63;;;-146.65;100.00
57094;BME280;42970;50.996;3.706;2022-12-17T06:17:07;80021.63;;;-146.65;100.00
57094;BME280;42970;50.996;3.706;2022-12-17T06:19:51;80043.84;;;-146.65;100.00
57094;BME280;42970;50.996;3.706;2022-12-17T06:22:35;80053.94;;;-146.65;100.00
57094;BME280;42970;50.996;3.706;2022-12-17T06:25:19;80074.13;;;-146.65;100.00
57094;BME280;42970;50.996;3.706;2022-12-17T06:28:03;80049.88;;;-146.65;100.00
57094;BME280;42970;50.996;3.706;2022-12-17T06:30:51;80062.00;;;-146.65;100.00
57094;BME280;42970;50.996;3.706;2022-12-17T06:33:35;80080.19;;;-146.65;100.00
57094;BME280;42970;50.996;3.706;2022-12-17T06:36:19;80092.28;;;-146.65;100.00
57094;BME280;42970;50.996;3.706;2022-12-17T06:39:23;80104.41;;;-146.65;100.00
57094;BME280;42970;50.996;3.706;2022-12-17T06:42:07;80114.50;;;-146.65;100.00
57094;BME280;42970;50.996;3.706;2022-12-17T06:44:50;80118.53;;;-146.65;100.00
57094;BME280;42970;50.996;3.706;2022-12-17T06:47:34;80134.69;;;-146.65;100.00
57094;BME280;42970;50.996;3.706;2022-12-17T06:50:18;80150.84;;;-146.65;100.00
57094;BME280;42970;50.996;3.706;2022-12-17T06:53:03;80154.91;;;-146.65;100.00
57094;BME280;42970;50.996;3.706;2022-12-17T06:55:48;80116.53;;;-146.65;100.00
57094;BME280;42970;50.996;3.706;2022-12-17T06:58:32;80116.53;;;-146.65;100.00
57094;BME280;42970;50.996;3.706;2022-12-17T07:01:16;80110.47;;;-146.65;100.00
57094;BME280;42970;50.996;3.706;2022-12-17T07:04:00;80106.44;;;-146.65;100.00
57094;BME280;42970;50.996;3.706;2022-12-17T07:06:44;80118.53;;;-146.65;100.00
57094;BME280;42970;50.996;3.706;2022-12-17T07:09:28;80136.72;;;-146.65;100.00
57094;BME280;42970;50.996;3.706;2022-12-17T07:12:12;80150.84;;;-146.65;100.00
57094;BME280;42970;50.996;3.706;2022-12-17T07:14:56;80162.97;;;-146.65;100.00
57094;BME280;42970;50.996;3.706;2022-12-17T07:17:40;80158.94;;;-146.65;100.00
57094;BME280;42970;50.996;3.706;2022-12-17T07:20:24;80156.91;;;-146.65;100.00
57094;BME280;42970;50.996;3.706;2022-12-17T07:23:08;80150.84;;;-146.65;100.00
57094;BME280;42970;50.996;3.706;2022-12-17T07:25:51;80116.53;;;-146.65;100.00
57094;BME280;42970;50.996;3.706;2022-12-17T07:28:35;80118.53;;;-146.65;100.00
57094;BME280;42970;50.996;3.706;2022-12-17T07:31:19;80146.81;;;-146.65;100.00
57094;BME280;42970;50.996;3.706;2022-12-17T07:34:03;80140.75;;;-146.65;100.00
57094;BME280;42970;50.996;3.706;2022-12-17T07:36:47;80142.78;;;-146.65;100.00
57094;BME280;42970;50.996;3.706;2022-12-17T07:39:31;80106.44;;;-146.65;100.00
57094;BME280;42970;50.996;3.706;2022-12-17T07:42:15;80108.44;;;-146.65;100.00
57094;BME280;42970;50.996;3.706;2022-12-17T07:44:59;80086.25;;;-146.65;100.00
57094;BME280;42970;50.996;3.706;2022-12-17T07:47:49;80098.34;;;-146.65;100.00
57094;BME280;42970;50.996;3.706;2022-12-17T07:50:33;80102.38;;;-146.65;100.00
57094;BME280;42970;50.996;3.706;2022-12-17T07:53:17;80098.34;;;-146.65;100.00
57094;BME280;42970;50.996;3.706;2022-12-17T07:56:01;80106.44;;;-146.65;100.00
57094;BME280;42970;50.996;3.706;2022-12-17T07:58:45;80110.47;;;-146.65;100.00
57094;BME280;42970;50.996;3.706;2022-12-17T08:01:29;80043.84;;;-146.65;100.00
57094;BME280;42970;50.996;3.706;2022-12-17T08:04:13;80021.63;;;-146.65;100.00
57094;BME280;42970;50.996;3.706;2022-12-17T08:06:56;80029.69;;;-146.65;100.00
57094;BME280;42970;50.996;3.706;2022-12-17T08:09:40;80059.97;;;-146.65;100.00
57094;BME280;42970;50.996;3.706;2022-12-17T08:12:24;80086.25;;;-146.65;100.00
57094;BME280;42970;50.996;3.706;2022-12-17T08:15:08;80094.31;;;-146.65;100.00
57094;BME280;42970;50.996;3.706;2022-12-17T08:17:57;80106.44;;;-146.65;100.00
57094;BME280;42970;50.996;3.706;2022-12-17T08:20:41;80114.50;;;-146.65;100.00
57094;BME280;42970;50.996;3.706;2022-12-17T08:23:25;80110.47;;;-146.65;100.00
57094;BME280;42970;50.996;3.706;2022-12-17T08:26:09;80086.25;;;-146.65;100.00
57094;BME280;42970;50.996;3.706;2022-12-17T08:28:53;80057.97;;;-146.65;100.00
57094;BME280;42970;50.996;3.706;2022-12-17T08:31:37;80005.47;;;-146.65;100.00
57094;BME280;42970;50.996;3.706;2022-12-17T08:34:21;79995.38;;;-146.65;100.00
57094;BME280;42970;50.996;3.706;2022-12-17T08:37:05;79981.22;;;-146.65;100.00
57094;BME280;42970;50.996;3.706;2022-12-17T08:39:48;79969.13;;;-146.65;100.00
57094;BME280;42970;50.996;3.706;2022-12-17T08:42:32;79959.03;;;-146.65;100.00
57094;BME280;42970;50.996;3.706;2022-12-17T08:45:16;79950.94;;;-146.65;100.00
57094;BME280;42970;50.996;3.706;2022-12-17T08:48:20;79922.69;;;-146.65;100.00
57094;BME280;42970;50.996;3.706;2022-12-17T08:51:03;79888.34;;;-146.65;100.00
57094;BME280;42970;50.996;3.706;2022-12-17T08:53:47;79815.66;;;-146.65;100.00
57094;BME280;42970;50.996;3.706;2022-12-17T08:56:31;79779.31;;;-146.65;100.00
57094;BME280;42970;50.996;3.706;2022-12-17T08:59:15;79747.00;;;-146.65;100.00
57094;BME280;42970;50.996;3.706;2022-12-17T09:01:59;79773.25;;;-146.65;100.00
57094;BME280;42970;50.996;3.706;2022-12-17T09:04:43;79759.13;;;-146.65;100.00
57094;BME280;42970;50.996;3.706;2022-12-17T09:07:26;79708.63;;;-146.65;100.00
57094;BME280;42970;50.996;3.706;2022-12-17T09:10:10;79678.34;;;-146.65;100.00
57094;BME280;42970;50.996;3.706;2022-12-17T09:12:54;79668.25;;;-146.65;100.00
57094;BME280;42970;50.996;3.706;2022-12-17T09:15:38;79650.09;;;-146.65;100.00
57094;BME280;42970;50.996;3.706;2022-12-17T09:18:22;79627.88;;;-146.65;100.00
57094;BME280;42970;50.996;3.706;2022-12-17T09:21:06;79599.59;;;-146.65;100.00
57094;BME280;42970;50.996;3.706;2022-12-17T09:23:50;79589.50;;;-146.65;100.00
57094;BME280;42970;50.996;3.706;2022-12-17T09:26:34;79563.25;;;-146.65;100.00
57094;BME280;42970;50.996;3.706;2022-12-17T09:29:18;79516.81;;;-146.65;100.00
57094;BME280;42970;50.996;3.706;2022-12-17T09:32:02;79498.66;;;-146.65;100.00
57094;BME280;42970;50.996;3.706;2022-12-17T09:34:46;79472.41;;;-146.65;100.00
57094;BME280;42970;50.996;3.706;2022-12-17T09:37:31;79438.09;;;-146.65;100.00
57094;BME280;42970;50.996;3.706;2022-12-17T09:40:16;79403.75;;;-146.65;100.00
57094;BME280;42970;50.996;3.706;2022-12-17T09:43:02;79361.38;;;-146.65;100.00
57094;BME280;42970;50.996;3.706;2022-12-17T09:48:34;79327.03;;;-146.65;98.96
57094;BME280;42970;50.996;3.706;2022-12-17T09:51:26;79320.97;;;-146.65;99.16
57094;BME280;42970;50.996;3.706;2022-12-17T09:57:23;79254.34;;;-146.65;96.87
57094;BME280;42970;50.996;3.706;2022-12-17T10:00:15;79236.19;;;-146.65;95.97
57094;BME280;42970;50.996;3.706;2022-12-17T10:03:00;79193.78;;;-146.65;95.13
57094;BME280;42970;50.996;3.706;2022-12-17T10:05:44;79157.44;;;-146.65;93.65
57094;BME280;42970;50.996;3.706;2022-12-17T10:08:29;79151.41;;;-146.65;92.73
57094;BME280;42970;50.996;3.706;2022-12-17T10:11:22;79137.25;;;-146.65;92.34
57094;BME280;42970;50.996;3.706;2022-12-17T10:14:17;79100.94;;;-146.65;90.69
57094;BME280;42970;50.996;3.706;2022-12-17T10:17:01;79056.50;;;-146.65;89.31
57094;BME280;42970;50.996;3.706;2022-12-17T10:19:45;79056.50;;;-146.65;89.05
57094;BME280;42970;50.996;3.706;2022-12-17T10:22:31;78997.97;;;-146.65;87.54
57094;BME280;42970;50.996;3.706;2022-12-17T10:25:24;78943.47;;;-146.65;86.30
57094;BME280;42970;50.996;3.706;2022-12-17T10:28:16;78890.97;;;-146.65;83.28
57094;BME280;42970;50.996;3.706;2022-12-17T10:31:00;78854.63;;;-146.65;81.31
57094;BME280;42970;50.996;3.706;2022-12-17T10:33:44;78882.91;;;-146.65;82.18
57094;BME280;42970;50.996;3.706;2022-12-17T10:36:29;78854.63;;;-146.65;81.73
57094;BME280;42970;50.996;3.706;2022-12-17T10:39:19;78890.97;;;-146.65;82.21
57094;BME280;42970;50.996;3.706;2022-12-17T10:42:16;78747.66;;;-146.65;79.48
57094;BME280;42970;50.996;3.706;2022-12-17T10:45:16;78761.78;;;-146.65;76.74
57094;BME280;42970;50.996;3.706;2022-12-17T10:47:59;78777.91;;;-146.65;76.32
57094;BME280;42970;50.996;3.706;2022-12-17T10:50:43;78765.81;;;-146.65;77.78
57094;BME280;42970;50.996;3.706;2022-12-17T10:53:28;78721.41;;;-146.65;77.73
57094;BME280;42970;50.996;3.706;2022-12-17T10:56:24;78771.88;;;-146.65;78.28
57094;BME280;42970;50.996;3.706;2022-12-17T10:59:29;78794.06;;;-146.65;79.09
57094;BME280;42970;50.996;3.706;2022-12-17T11:02:25;78753.69;;;-146.65;78.47
57094;BME280;42970;50.996;3.706;2022-12-17T11:05:29;78745.63;;;-146.65;76.56
57094;BME280;42970;50.996;3.706;2022-12-17T11:08:31;78741.59;;;-146.65;77.70
57094;BME280;42970;50.996;3.706;2022-12-17T11:11:15;78634.59;;;-146.65;75.31
57094;BME280;42970;50.996;3.706;2022-12-17T11:14:00;78622.50;;;-146.65;73.64
57094;BME280;42970;50.996;3.706;2022-12-17T11:16:48;78576.06;;;-146.65;72.44
57094;BME280;42970;50.996;3.706;2022-12-17T11:19:42;78699.19;;;-146.65;75.77
57094;BME280;42970;50.996;3.706;2022-12-17T11:22:39;78624.50;;;-146.65;74.36
57094;BME280;42970;50.996;3.706;2022-12-17T11:28:22;78517.53;;;-146.65;70.81
57094;BME280;42970;50.996;3.706;2022-12-17T11:33:57;78660.84;;;-146.65;72.72
57094;BME280;42970;50.996;3.706;2022-12-17T11:36:47;78612.41;;;-146.65;72.72
57094;BME280;42970;50.996;3.706;2022-12-17T11:39:40;78616.44;;;-146.65;73.58
57094;BME280;42970;50.996;3.706;2022-12-17T11:42:30;78563.94;;;-146.65;70.10
57094;BME280;42970;50.996;3.706;2022-12-17T11:45:38;78648.72;;;-146.65;73.26
57094;BME280;42970;50.996;3.706;2022-12-17T11:48:31;78616.44;;;-146.65;73.02
57094;BME280;42970;50.996;3.706;2022-12-17T11:51:19;78557.91;;;-146.65;72.48
57094;BME280;42970;50.996;3.706;2022-12-17T11:56:59;78604.31;;;-146.65;71.22
57094;BME280;42970;50.996;3.706;2022-12-17T11:59:48;78618.44;;;-146.65;71.90
57094;BME280;42970;50.996;3.706;2022-12-17T12:14:10;78535.69;;;-146.65;68.56
57094;BME280;42970;50.996;3.706;2022-12-17T12:17:13;78444.84;;;-146.65;66.96
57094;BME280;42970;50.996;3.706;2022-12-17T12:23:01;78543.75;;;-146.65;68.46
57094;BME280;42970;50.996;3.706;2022-12-17T12:26:03;78794.06;;;-146.65;78.07
57094;BME280;42970;50.996;3.706;2022-12-17T12:29:18;78886.94;;;-146.65;83.56
57094;BME280;42970;50.996;3.706;2022-12-17T12:32:03;78939.41;;;-146.65;87.47
57094;BME280;42970;50.996;3.706;2022-12-17T12:34:52;78973.75;;;-146.65;89.16
57094;BME280;42970;50.996;3.706;2022-12-17T12:37:37;78983.84;;;-146.65;89.53
57094;BME280;42970;50.996;3.706;2022-12-17T12:46:00;79012.09;;;-146.65;91.51
57094;BME280;42970;50.996;3.706;2022-12-17T12:51:49;79036.31;;;-146.65;92.12
57094;BME280;42970;50.996;3.706;2022-12-17T12:57:29;79050.44;;;-146.65;92.92
57094;BME280;42970;50.996;3.706;2022-12-17T13:03:07;79060.53;;;-146.65;94.55
57094;BME280;42970;50.996;3.706;2022-12-17T13:05:51;79058.53;;;-146.65;94.39
57094;BME280;42970;50.996;3.706;2022-12-17T13:08:21;79052.47;;;-146.65;94.15
57094;BME280;42970;50.996;3.706;2022-12-17T13:10:47;79048.44;;;-146.65;93.35
57094;BME280;42970;50.996;3.706;2022-12-17T13:16:04;79064.59;;;-146.65;93.53
57094;BME280;42970;50.996;3.706;2022-12-17T13:18:42;79064.59;;;-146.65;93.57
57094;BME280;42970;50.996;3.706;2022-12-17T13:23:39;79070.63;;;-146.65;93.68
57094;BME280;42970;50.996;3.706;2022-12-17T13:28:43;79072.66;;;-146.65;93.78
57094;BME280;42970;50.996;3.706;2022-12-17T13:31:15;79070.63;;;-146.65;94.12
57094;BME280;42970;50.996;3.706;2022-12-17T13:33:53;79076.69;;;-146.65;94.51
57094;BME280;42970;50.996;3.706;2022-12-17T13:37:04;79066.59;;;-146.65;93.64
57094;BME280;42970;50.996;3.706;2022-12-17T13:41:53;79076.69;;;-146.65;94.14
57094;BME280;42970;50.996;3.706;2022-12-17T13:44:25;79086.78;;;-146.65;93.90
57094;BME280;42970;50.996;3.706;2022-12-17T13:46:52;79092.84;;;-146.65;93.73
57094;BME280;42970;50.996;3.706;2022-12-17T13:49:22;79094.88;;;-146.65;94.10
57094;BME280;42970;50.996;3.706;2022-12-17T13:51:58;79102.94;;;-146.65;94.39
57094;BME280;42970;50.996;3.706;2022-12-17T13:54:24;79117.06;;;-146.65;94.57
57094;BME280;42970;50.996;3.706;2022-12-17T13:56:49;79119.09;;;-146.65;94.81
57094;BME280;42970;50.996;3.706;2022-12-17T13:59:19;79139.28;;;-146.65;95.20
57094;BME280;42970;50.996;3.706;2022-12-17T14:01:45;79147.34;;;-146.65;95.87
57094;BME280;42970;50.996;3.706;2022-12-17T14:04:18;79167.53;;;-146.65;96.25
57094;BME280;42970;50.996;3.706;2022-12-17T14:06:44;79181.69;;;-146.65;96.92
57094;BME280;42970;50.996;3.706;2022-12-17T14:09:13;79197.81;;;-146.65;97.60
57094;BME280;42970;50.996;3.706;2022-12-17T14:11:40;79205.91;;;-146.65;98.15
57094;BME280;42970;50.996;3.706;2022-12-17T14:14:27;79216.00;;;-146.65;98.65
57094;BME280;42970;50.996;3.706;2022-12-17T14:16:54;79216.00;;;-146.65;99.07
57094;BME280;42970;50.996;3.706;2022-12-17T14:19:19;79220.03;;;-146.65;99.33
57094;BME280;42970;50.996;3.706;2022-12-17T14:21:45;79226.09;;;-146.65;99.71
57094;BME280;42970;50.996;3.706;2022-12-17T14:24:11;79232.16;;;-146.65;100.00
57094;BME280;42970;50.996;3.706;2022-12-17T14:26:46;79238.22;;;-146.65;100.00
57094;BME280;42970;50.996;3.706;2022-12-17T14:29:11;79252.34;;;-146.65;100.00
57094;BME280;42970;50.996;3.706;2022-12-17T14:31:37;79264.44;;;-146.65;100.00
57094;BME280;42970;50.996;3.706;2022-12-17T14:34:03;79274.53;;;-146.65;100.00
57094;BME280;42970;50.996;3.706;2022-12-17T14:36:32;79286.66;;;-146.65;100.00
57094;BME280;42970;50.996;3.706;2022-12-17T14:38:59;79288.69;;;-146.65;100.00
57094;BME280;42970;50.996;3.706;2022-12-17T14:41:25;79290.69;;;-146.65;100.00
57094;BME280;42970;50.996;3.706;2022-12-17T14:44:28;79294.75;;;-146.65;100.00
57094;BME280;42970;50.996;3.706;2022-12-17T14:47:10;79306.84;;;-146.65;100.00
57094;BME280;42970;50.996;3.706;2022-12-17T14:49:38;79325.03;;;-146.65;100.00
57094;BME280;42970;50.996;3.706;2022-12-17T14:52:13;79331.06;;;-146.65;100.00
57094;BME280;42970;50.996;3.706;2022-12-17T14:54:43;79335.13;;;-146.65;100.00
57094;BME280;42970;50.996;3.706;2022-12-17T14:57:16;79339.16;;;-146.65;100.00